Titan — WDD7142 — position and weather

sailwx.info

Track history (hours):
 
Tides and Currents Weather Stations Pressure Air Temp Water Temp Dewpoint Dewpoint Depression Visibility Wind Speed Wind Dir Waves Ship Positions

Titan

Owner: Seabulk Towing Service,Inc, Groves, TX. More information available from US FCC via Universal Licensing System and Coast Guard Vessel Documentation Center.

Last reported at 2018-Jun-21 19:30 UTC. Time now 2018-Jun-21 19:52 UTC.
Position N 29°57' W 093°52'.

Length 32 m.

Type: Tug. MMSI: 366268050.

Date/timePositionNaut miles runAvg speedWind from/ knotsBaromVisibWave heightAir tempDewpointWater temp
2018-Jun-21 19:30N 29°57' W 093°52'1 1.1
2018-Jun-21 19:00N 29°57' W 093°52'1 2.8
2018-Jun-21 18:30N 29°56' W 093°53'1 2.4
2018-Jun-21 18:00N 29°57' W 093°52'0 0.0
2018-Jun-21 17:30N 29°57' W 093°52'0 0.9
2018-Jun-21 17:00N 29°57' W 093°52'3 6.6
2018-Jun-21 16:30N 29°59' W 093°55'4 8.1
2018-Jun-21 16:00N 30°01' W 093°59'1 1.3
2018-Jun-21 15:30N 30°01' W 093°60'0 0.0
2018-Jun-21 14:59N 30°01' W 093°60'0 0.1
2018-Jun-21 14:30N 30°01' W 093°60'1 1.4
2018-Jun-21 13:59N 30°01' W 093°59'2 3.1
2018-Jun-21 13:30N 30°00' W 093°57'4 8.7
2018-Jun-21 13:00N 29°59' W 093°52'2 4.8
2018-Jun-21 12:30N 29°57' W 093°52'0 0.0
2018-Jun-21 12:00N 29°57' W 093°52'0 0.0
2018-Jun-21 11:30N 29°57' W 093°52'0 0.0
2018-Jun-21 11:00N 29°57' W 093°52'0 0.0
2018-Jun-21 10:30N 29°57' W 093°52'0 0.0
2018-Jun-21 10:00N 29°57' W 093°52'0 0.0
2018-Jun-21 09:30N 29°57' W 093°52'0 0.0
2018-Jun-21 09:00N 29°57' W 093°52'0 0.0
2018-Jun-21 08:30N 29°57' W 093°52'0 0.7
2018-Jun-21 08:00N 29°57' W 093°52'0 0.3
2018-Jun-21 07:30N 29°57' W 093°52'0 0.2
2018-Jun-21 07:00N 29°57' W 093°52'1 2.3
2018-Jun-21 06:30N 29°56' W 093°52'1 1.5
2018-Jun-21 06:00N 29°57' W 093°52'0 0.0
2018-Jun-21 05:30N 29°57' W 093°52'0 0.0
2018-Jun-21 05:00N 29°57' W 093°52'0 0.0
2018-Jun-21 04:30N 29°57' W 093°52'0 0.0
2018-Jun-21 04:00N 29°57' W 093°52'0 0.0
2018-Jun-21 03:30N 29°57' W 093°52'0 0.0
2018-Jun-21 03:00N 29°57' W 093°52'3 5.3
2018-Jun-21 02:30N 29°59' W 093°53'5 9.0
2018-Jun-21 02:00N 30°01' W 093°58'4 7.5
2018-Jun-21 01:30N 30°03' W 094°02'3 5.4
2018-Jun-21 01:00N 30°05' W 094°04'0 0.0
2018-Jun-21 00:30N 30°05' W 094°04'1 2.0
2018-Jun-21 00:01N 30°05' W 094°05'1 1.3
2018-Jun-20 23:30N 30°05' W 094°04'1 1.3
2018-Jun-20 23:00N 30°05' W 094°05'0 0.0
2018-Jun-20 22:30N 30°05' W 094°05'0 0.0
2018-Jun-20 22:00N 30°05' W 094°05'0 0.0
2018-Jun-20 21:30N 30°05' W 094°05'0 0.0
2018-Jun-20 21:00N 30°05' W 094°05'0 0.0
2018-Jun-20 20:30N 30°05' W 094°05'0 0.0
2018-Jun-20 20:00N 30°05' W 094°05'0 0.0
2018-Jun-20 19:30N 30°05' W 094°05'0 0.0
2018-Jun-20 19:00N 30°05' W 094°05'0 0.0
2018-Jun-20 18:30N 30°05' W 094°05'0 0.0
2018-Jun-20 18:00N 30°05' W 094°05'0 0.0
2018-Jun-20 17:30N 30°05' W 094°05'0 0.0
2018-Jun-20 17:00N 30°05' W 094°05'0 0.0
2018-Jun-20 16:30N 30°05' W 094°05'3 6.7
2018-Jun-20 16:00N 30°03' W 094°02'3 5.5
2018-Jun-20 15:30N 30°01' W 093°60'0 0.0
2018-Jun-20 15:00N 30°01' W 093°60'1 2.6
2018-Jun-20 14:30N 30°01' W 093°58'0 0.2
2018-Jun-20 14:00N 30°01' W 093°58'0 0.0
2018-Jun-20 13:30N 30°01' W 093°58'1 2.2
2018-Jun-20 13:01N 30°01' W 093°59'0 0.1
2018-Jun-20 12:30N 30°01' W 093°59'2 4.8
2018-Jun-20 12:00N 30°02' W 094°02'1 1.1
2018-Jun-20 11:30N 30°02' W 094°02'0 0.0
2018-Jun-20 11:00N 30°02' W 094°02'0 0.5
2018-Jun-20 10:30N 30°02' W 094°02'0 0.0
2018-Jun-20 10:00N 30°02' W 094°02'0 0.0
2018-Jun-20 09:30N 30°02' W 094°02'0 0.0
2018-Jun-20 09:00N 30°02' W 094°02'0 0.0
2018-Jun-20 08:30N 30°02' W 094°02'0 0.0
2018-Jun-20 08:00N 30°02' W 094°02'0 0.0
2018-Jun-20 07:30N 30°02' W 094°02'0 0.0
2018-Jun-20 07:00N 30°02' W 094°02'0 0.0
2018-Jun-20 06:30N 30°02' W 094°02'0 0.7
2018-Jun-20 06:00N 30°02' W 094°02'0 0.0
2018-Jun-20 05:30N 30°02' W 094°02'0 0.2
2018-Jun-20 05:01N 30°02' W 094°02'3 6.3
2018-Jun-20 04:30N 30°05' W 094°04'0 0.9
2018-Jun-20 04:00N 30°05' W 094°05'0 0.0
2018-Jun-20 03:30N 30°05' W 094°05'0 0.0
2018-Jun-20 03:00N 30°05' W 094°05'0 0.0
2018-Jun-20 02:30N 30°05' W 094°05'0 0.0
2018-Jun-20 02:00N 30°05' W 094°05'0 0.2
2018-Jun-20 01:30N 30°05' W 094°05'2 4.8
2018-Jun-20 01:00N 30°04' W 094°02'0 0.2
2018-Jun-20 00:30N 30°04' W 094°02'4 7.1
2018-Jun-20 00:00N 30°01' W 093°60'2 4.9
2018-Jun-19 23:30N 29°60' W 093°57'1 1.8
2018-Jun-19 23:00N 29°60' W 093°56'0 0.0
2018-Jun-19 22:30N 29°60' W 093°56'2 5.0
2018-Jun-19 22:01N 30°01' W 093°59'4 7.7
2018-Jun-19 21:30N 30°03' W 094°02'3 6.2
2018-Jun-19 21:00N 30°05' W 094°05'0 0.0
2018-Jun-19 20:28N 30°05' W 094°05'0 0.0
2018-Jun-19 19:59N 30°05' W 094°05'0 0.0
2018-Jun-19 19:29N 30°05' W 094°05'0 0.0
2018-Jun-19 19:00N 30°05' W 094°05'0 0.0
2018-Jun-19 18:29N 30°05' W 094°05'0 0.0
2018-Jun-19 18:00N 30°05' W 094°05'0 0.0
2018-Jun-19 17:30N 30°05' W 094°05'0 0.0
2018-Jun-19 16:57N 30°05' W 094°05'0 0.0
2018-Jun-19 16:27N 30°05' W 094°05'0 0.0
2018-Jun-19 16:00N 30°05' W 094°05'0 0.0
2018-Jun-19 15:30N 30°05' W 094°05'0 0.0
2018-Jun-19 14:59N 30°05' W 094°05'0 0.0
2018-Jun-19 14:30N 30°05' W 094°05'0 0.0
2018-Jun-19 14:00N 30°05' W 094°05'0 0.0
2018-Jun-19 13:28N 30°05' W 094°05'0 0.0
2018-Jun-19 12:59N 30°05' W 094°05'0 0.0
2018-Jun-19 12:30N 30°05' W 094°05'0 0.0
2018-Jun-19 12:00N 30°05' W 094°05'0 0.0
2018-Jun-19 11:30N 30°05' W 094°05'0 0.0
2018-Jun-19 11:00N 30°05' W 094°05'0 0.0
2018-Jun-19 10:30N 30°05' W 094°05'0 0.0
2018-Jun-19 10:00N 30°05' W 094°05'0 0.0
2018-Jun-19 09:30N 30°05' W 094°05'0 0.0
2018-Jun-19 09:00N 30°05' W 094°05'0 0.0
2018-Jun-19 08:28N 30°05' W 094°05'0 0.0
2018-Jun-19 08:00N 30°05' W 094°05'0 0.0
2018-Jun-19 07:30N 30°05' W 094°05'0 0.0
2018-Jun-19 07:00N 30°05' W 094°05'0 0.0
2018-Jun-19 06:30N 30°05' W 094°05'0 0.0
2018-Jun-19 06:00N 30°05' W 094°05'0 0.0
2018-Jun-19 05:30N 30°05' W 094°05'0 0.0
2018-Jun-19 05:00N 30°05' W 094°05'0 0.0
2018-Jun-19 04:30N 30°05' W 094°05'0 0.0
2018-Jun-19 04:00N 30°05' W 094°05'0 0.0
2018-Jun-19 03:30N 30°05' W 094°05'0 0.0
2018-Jun-19 03:00N 30°05' W 094°05'0 0.0
2018-Jun-19 02:30N 30°05' W 094°05'0 0.0
2018-Jun-19 02:00N 30°05' W 094°05'0 0.0
2018-Jun-19 01:29N 30°05' W 094°05'0 0.0
2018-Jun-19 00:59N 30°05' W 094°05'0 0.0
2018-Jun-19 00:30N 30°05' W 094°05'0 0.0
2018-Jun-18 23:58N 30°05' W 094°05'0 0.0
2018-Jun-18 23:29N 30°05' W 094°05'0 0.0
2018-Jun-18 23:00N 30°05' W 094°05'0 0.0
2018-Jun-18 22:26N 30°05' W 094°05'0 0.0
2018-Jun-18 22:00N 30°05' W 094°05'0 0.0
2018-Jun-18 21:30N 30°05' W 094°05'0 0.0
2018-Jun-18 21:00N 30°05' W 094°05'0 0.0
2018-Jun-18 20:30N 30°05' W 094°05'0 0.0
2018-Jun-18 20:00N 30°05' W 094°05'0 0.0
2018-Jun-18 19:30N 30°05' W 094°05'0 0.0
2018-Jun-18 19:00N 30°05' W 094°05'2 3.4
2018-Jun-18 18:30N 30°04' W 094°03'4 7.4
2018-Jun-18 18:01N 30°01' W 094°01'1 2.5
2018-Jun-18 17:31N 30°01' W 093°60'0 0.2
2018-Jun-18 17:00N 30°01' W 093°60'0 0.0
2018-Jun-18 16:27N 30°01' W 093°60'3 6.1
2018-Jun-18 16:00N 30°03' W 094°02'3 6.7
2018-Jun-18 15:30N 30°05' W 094°05'0 0.0
2018-Jun-18 15:00N 30°05' W 094°05'0 0.0
2018-Jun-18 14:30N 30°05' W 094°05'0 0.0
2018-Jun-18 14:00N 30°05' W 094°05'0 0.0
2018-Jun-18 13:30N 30°05' W 094°05'0 0.0
2018-Jun-18 13:00N 30°05' W 094°05'0 0.0
2018-Jun-18 12:30N 30°05' W 094°05'0 0.0
2018-Jun-18 12:00N 30°05' W 094°05'0 0.0
2018-Jun-18 11:30N 30°05' W 094°05'0 0.0
2018-Jun-18 11:00N 30°05' W 094°05'0 0.0
2018-Jun-18 10:30N 30°05' W 094°05'0 0.0
2018-Jun-18 10:00N 30°05' W 094°05'0 0.0
2018-Jun-18 09:30N 30°05' W 094°05'0 0.0
2018-Jun-18 09:00N 30°05' W 094°05'0 0.0
2018-Jun-18 08:30N 30°05' W 094°05'0 0.0
2018-Jun-18 08:00N 30°05' W 094°05'0 0.0
2018-Jun-18 07:30N 30°05' W 094°05'0 0.0
2018-Jun-18 07:00N 30°05' W 094°05'0 0.0
2018-Jun-18 06:30N 30°05' W 094°05'0 0.0
2018-Jun-18 06:00N 30°05' W 094°05'0 0.0
2018-Jun-18 05:30N 30°05' W 094°05'0 0.0
2018-Jun-18 05:00N 30°05' W 094°05'0 0.0
2018-Jun-18 04:30N 30°05' W 094°05'0 0.0
2018-Jun-18 04:00N 30°05' W 094°05'0 0.0
2018-Jun-18 03:30N 30°05' W 094°05'0 0.0
2018-Jun-18 03:00N 30°05' W 094°05'0 0.0
2018-Jun-18 02:30N 30°05' W 094°05'0 0.0
2018-Jun-18 02:00N 30°05' W 094°05'0 0.0
2018-Jun-18 01:30N 30°05' W 094°05'0 0.0
2018-Jun-18 01:00N 30°05' W 094°05'0 0.0
2018-Jun-18 00:30N 30°05' W 094°05'0 0.0
2018-Jun-18 00:00N 30°05' W 094°05'0 0.0
2018-Jun-17 23:30N 30°05' W 094°05'0 0.0
2018-Jun-17 23:00N 30°05' W 094°05'0 0.0
2018-Jun-17 22:30N 30°05' W 094°05'0 0.0
2018-Jun-17 22:00N 30°05' W 094°05'0 0.9
2018-Jun-17 21:30N 30°05' W 094°05'1 2.0
2018-Jun-17 20:59N 30°04' W 094°03'0 0.1
2018-Jun-17 20:31N 30°04' W 094°03'1 2.5
2018-Jun-17 20:00N 30°05' W 094°05'1 2.4
2018-Jun-17 19:30N 30°04' W 094°03'1 2.2
2018-Jun-17 19:00N 30°04' W 094°02'0 0.0
2018-Jun-17 18:30N 30°04' W 094°02'0 0.0
2018-Jun-17 18:00N 30°04' W 094°02'1 1.1
2018-Jun-17 17:30N 30°04' W 094°02'1 2.7
2018-Jun-17 17:00N 30°02' W 094°02'0 0.3
2018-Jun-17 16:30N 30°02' W 094°02'1 2.6
2018-Jun-17 16:00N 30°01' W 094°01'0 0.0
2018-Jun-17 15:30N 30°01' W 094°01'3 6.6
2018-Jun-17 15:00N 30°04' W 094°03'2 3.7
2018-Jun-17 14:30N 30°05' W 094°05'0 0.0
2018-Jun-17 14:01N 30°05' W 094°05'0 0.0
2018-Jun-17 13:30N 30°05' W 094°05'0 0.0
2018-Jun-17 13:00N 30°05' W 094°05'0 0.0
2018-Jun-17 12:30N 30°05' W 094°05'0 0.0
2018-Jun-17 12:00N 30°05' W 094°05'0 0.0
2018-Jun-17 11:30N 30°05' W 094°05'0 0.0
2018-Jun-17 11:00N 30°05' W 094°05'0 0.0
2018-Jun-17 10:30N 30°05' W 094°05'0 0.0
2018-Jun-17 10:00N 30°05' W 094°05'0 0.0
2018-Jun-17 09:30N 30°05' W 094°05'0 0.0
2018-Jun-17 09:00N 30°05' W 094°05'0 0.0
2018-Jun-17 08:30N 30°05' W 094°05'0 0.0
2018-Jun-17 08:00N 30°05' W 094°05'0 0.0
2018-Jun-17 07:31N 30°05' W 094°05'0 0.0
2018-Jun-17 07:00N 30°05' W 094°05'0 0.0
2018-Jun-17 06:30N 30°05' W 094°05'0 0.0
2018-Jun-17 06:01N 30°05' W 094°05'0 0.0
2018-Jun-17 05:30N 30°05' W 094°05'0 0.0
2018-Jun-17 05:00N 30°05' W 094°05'0 0.0
2018-Jun-17 04:26N 30°05' W 094°05'0 0.0
2018-Jun-17 03:58N 30°05' W 094°05'0 0.0
2018-Jun-17 03:28N 30°05' W 094°05'0 0.0
2018-Jun-17 03:00N 30°05' W 094°05'0 0.0
2018-Jun-17 02:30N 30°05' W 094°05'2 4.1
2018-Jun-17 02:01N 30°04' W 094°03'2 3.4
2018-Jun-17 01:30N 30°02' W 094°02'0 0.6
2018-Jun-17 01:00N 30°02' W 094°02'3 7.0
2018-Jun-17 00:30N 30°01' W 093°58'2 4.2
2018-Jun-17 00:00N 29°60' W 093°56'0 0.0
2018-Jun-16 23:30N 29°60' W 093°56'1 2.6
2018-Jun-16 23:00N 29°59' W 093°55'1 2.2
2018-Jun-16 22:28N 29°59' W 093°56'0 0.0
2018-Jun-16 21:59N 29°59' W 093°56'0 0.0
2018-Jun-16 21:29N 29°59' W 093°56'0 0.0
2018-Jun-16 21:00N 29°59' W 093°56'0 0.0
2018-Jun-16 20:27N 29°59' W 093°56'0 0.0
2018-Jun-16 19:58N 29°59' W 093°56'0 0.0
2018-Jun-16 19:30N 29°59' W 093°56'0 0.0
2018-Jun-16 19:00N 29°59' W 093°56'0 0.0
2018-Jun-16 18:28N 29°59' W 093°56'0 0.0
2018-Jun-16 18:00N 29°59' W 093°56'0 0.0
2018-Jun-16 17:30N 29°59' W 093°56'0 0.0
2018-Jun-16 16:59N 29°59' W 093°56'0 0.0
2018-Jun-16 16:27N 29°59' W 093°56'0 0.0
2018-Jun-16 15:57N 29°59' W 093°56'0 0.0
2018-Jun-16 15:30N 29°59' W 093°56'0 0.0
2018-Jun-16 14:59N 29°59' W 093°56'0 0.0
2018-Jun-16 14:28N 29°59' W 093°56'0 0.0
2018-Jun-16 13:58N 29°59' W 093°56'0 0.0
2018-Jun-16 13:30N 29°59' W 093°56'0 0.0
2018-Jun-16 13:00N 29°59' W 093°56'2 4.4
2018-Jun-16 12:30N 30°01' W 093°58'0 0.1
2018-Jun-16 12:00N 30°01' W 093°58'1 2.6
2018-Jun-16 11:30N 30°01' W 093°60'0 0.0
2018-Jun-16 11:00N 30°01' W 093°60'3 5.4
2018-Jun-16 10:30N 29°60' W 093°57'1 1.2
2018-Jun-16 10:00N 29°59' W 093°56'0 0.0
2018-Jun-16 09:30N 29°59' W 093°56'0 0.0
2018-Jun-16 08:31N 29°59' W 093°56'0 0.0
2018-Jun-16 08:24N 29°59' W 093°56'0 0.0
2018-Jun-16 07:44N 29°59' W 093°56'0 0.0
2018-Jun-16 07:29N 29°59' W 093°56'0 0.0
2018-Jun-16 07:00N 29°59' W 093°56'0 0.0
2018-Jun-16 06:29N 29°59' W 093°56'0 0.0
2018-Jun-16 05:58N 29°59' W 093°56'0 0.0
2018-Jun-16 05:30N 29°59' W 093°56'0 0.0
2018-Jun-16 05:00N 29°59' W 093°56'0 0.0
2018-Jun-16 04:28N 29°59' W 093°56'0 0.0
2018-Jun-16 04:00N 29°59' W 093°56'0 0.0
2018-Jun-16 03:29N 29°59' W 093°56'0 0.0
2018-Jun-16 03:00N 29°59' W 093°56'0 0.0
2018-Jun-16 02:27N 29°59' W 093°56'0 0.0
2018-Jun-16 01:47N 29°59' W 093°56'0 0.0
2018-Jun-16 01:21N 29°59' W 093°56'0 0.0
2018-Jun-16 00:56N 29°59' W 093°56'0 0.0
2018-Jun-16 00:30N 29°59' W 093°56'0 0.0
2018-Jun-16 00:00N 29°59' W 093°56'0 0.0
2018-Jun-15 23:30N 29°59' W 093°56'0 0.6
2018-Jun-15 23:00N 29°60' W 093°56'0 0.0
2018-Jun-15 22:30N 29°60' W 093°56'0 0.9
2018-Jun-15 22:00N 29°59' W 093°56'1 2.4
2018-Jun-15 21:31N 29°59' W 093°55'1 2.5
2018-Jun-15 20:59N 29°59' W 093°56'0 0.0
2018-Jun-15 20:16N 29°59' W 093°56'0 0.0
2018-Jun-15 19:57N 29°59' W 093°56'0 0.0
2018-Jun-15 19:24N 29°59' W 093°56'0 0.0
2018-Jun-15 19:00N 29°59' W 093°56'1 1.4
2018-Jun-15 18:30N 29°59' W 093°55'4 7.6
2018-Jun-15 18:01N 29°58' W 093°51'3 5.4
2018-Jun-15 17:30N 29°55' W 093°53'2 3.3
2018-Jun-15 17:00N 29°57' W 093°52'2 3.9
2018-Jun-15 16:29N 29°55' W 093°53'0 0.0
2018-Jun-15 16:00N 29°55' W 093°53'0 0.0
2018-Jun-15 15:30N 29°55' W 093°53'0 0.0
2018-Jun-15 15:00N 29°55' W 093°53'0 0.1
2018-Jun-15 14:30N 29°55' W 093°53'2 3.4
2018-Jun-15 14:01N 29°57' W 093°52'0 0.0
2018-Jun-15 13:30N 29°57' W 093°52'0 0.0
2018-Jun-15 13:00N 29°57' W 093°52'0 0.0
2018-Jun-15 12:30N 29°57' W 093°52'0 0.0
2018-Jun-15 12:00N 29°57' W 093°52'0 0.0
2018-Jun-15 11:31N 29°57' W 093°52'0 0.0
2018-Jun-15 11:00N 29°57' W 093°52'0 0.0
2018-Jun-15 10:30N 29°57' W 093°52'0 0.0
2018-Jun-15 10:00N 29°57' W 093°52'0 0.0
2018-Jun-15 09:30N 29°57' W 093°52'0 0.0
2018-Jun-15 09:00N 29°57' W 093°52'0 0.0
2018-Jun-15 08:30N 29°57' W 093°52'0 0.0
2018-Jun-15 08:00N 29°57' W 093°52'0 0.0
2018-Jun-15 07:30N 29°57' W 093°52'0 0.0
2018-Jun-15 07:00N 29°57' W 093°52'0 0.0
2018-Jun-15 06:30N 29°57' W 093°52'0 0.0
2018-Jun-15 06:00N 29°57' W 093°52'0 0.1
2018-Jun-15 05:30N 29°57' W 093°52'4 7.0
2018-Jun-15 05:00N 29°54' W 093°54'3 5.0
2018-Jun-15 04:30N 29°52' W 093°56'0 0.0
2018-Jun-15 04:00N 29°52' W 093°56'0 0.0
2018-Jun-15 03:30N 29°52' W 093°56'1 1.4
2018-Jun-15 03:00N 29°52' W 093°56'1 2.0
2018-Jun-15 02:30N 29°52' W 093°56'0 0.2
2018-Jun-15 02:00N 29°52' W 093°56'0 0.0
2018-Jun-15 01:30N 29°52' W 093°56'0 0.0
2018-Jun-15 01:00N 29°52' W 093°56'0 0.0
2018-Jun-15 00:30N 29°52' W 093°56'0 0.0
2018-Jun-14 23:59N 29°52' W 093°56'0 0.0
2018-Jun-14 23:30N 29°52' W 093°56'0 0.0
2018-Jun-14 23:00N 29°52' W 093°56'0 0.0
2018-Jun-14 22:30N 29°52' W 093°56'0 0.0
2018-Jun-14 22:00N 29°52' W 093°56'1 1.8
2018-Jun-14 21:30N 29°52' W 093°56'4 8.6
2018-Jun-14 21:00N 29°56' W 093°53'3 6.3
2018-Jun-14 20:30N 29°59' W 093°53'3 6.3
2018-Jun-14 20:00N 29°59' W 093°56'0 0.0
2018-Jun-14 19:31N 29°59' W 093°56'0 0.0
2018-Jun-14 19:00N 29°60' W 093°56'0 0.0
2018-Jun-14 18:30N 29°59' W 093°56'0 0.0
2018-Jun-14 18:00N 29°60' W 093°56'0 0.0
2018-Jun-14 17:30N 29°59' W 093°56'0 0.0
2018-Jun-14 17:00N 29°59' W 093°56'0 0.2
2018-Jun-14 16:28N 29°59' W 093°56'0 0.0
2018-Jun-14 15:56N 29°59' W 093°56'0 0.0
2018-Jun-14 15:30N 29°59' W 093°56'0 0.0
2018-Jun-14 14:55N 29°59' W 093°56'0 0.0
2018-Jun-14 14:30N 29°59' W 093°56'0 0.0
2018-Jun-14 13:58N 29°59' W 093°56'0 0.5
2018-Jun-14 13:30N 29°60' W 093°56'4 7.7
2018-Jun-14 13:00N 30°01' W 094°00'2 3.2
2018-Jun-14 12:31N 30°02' W 094°02'1 1.2
2018-Jun-14 12:01N 30°02' W 094°02'3 6.9
2018-Jun-14 11:31N 30°05' W 094°05'0 0.0
2018-Jun-14 11:00N 30°05' W 094°05'0 0.0
2018-Jun-14 10:30N 30°05' W 094°05'0 0.0
2018-Jun-14 10:00N 30°05' W 094°05'0 0.0
2018-Jun-14 09:30N 30°05' W 094°05'0 0.0
2018-Jun-14 09:00N 30°05' W 094°05'0 0.0
2018-Jun-14 08:30N 30°05' W 094°05'0 0.0
2018-Jun-14 08:00N 30°05' W 094°05'0 0.0
2018-Jun-14 07:30N 30°05' W 094°05'0 0.0
2018-Jun-14 07:00N 30°05' W 094°05'0 0.0
2018-Jun-14 06:31N 30°05' W 094°05'0 0.0
2018-Jun-14 06:00N 30°05' W 094°05'0 0.0
2018-Jun-14 05:30N 30°05' W 094°05'0 0.0
2018-Jun-14 05:00N 30°05' W 094°05'0 0.0
2018-Jun-14 04:31N 30°05' W 094°05'0 0.0
2018-Jun-14 04:00N 30°05' W 094°05'0 0.0
2018-Jun-14 03:30N 30°05' W 094°05'2 4.7
2018-Jun-14 03:00N 30°04' W 094°02'2 3.2
2018-Jun-14 02:30N 30°02' W 094°02'0 0.0
2018-Jun-14 02:01N 30°02' W 094°02'1 1.4
2018-Jun-14 01:30N 30°02' W 094°02'1 1.7
2018-Jun-14 01:00N 30°01' W 094°01'1 1.1
2018-Jun-14 00:30N 30°01' W 094°00'1 1.3
2018-Jun-14 00:00N 30°01' W 093°60'0 0.0
2018-Jun-13 23:30N 30°01' W 093°60'0 0.8
2018-Jun-13 23:00N 30°01' W 093°59'2 3.3
2018-Jun-13 22:31N 30°01' W 093°57'4 8.4
2018-Jun-13 22:00N 29°59' W 093°53'2 4.8
2018-Jun-13 21:30N 29°57' W 093°52'0 0.0
2018-Jun-13 21:00N 29°57' W 093°52'0 0.0
2018-Jun-13 20:30N 29°57' W 093°52'0 0.0
2018-Jun-13 20:01N 29°57' W 093°52'0 0.0
2018-Jun-13 19:30N 29°57' W 093°52'0 0.0
2018-Jun-13 19:00N 29°57' W 093°52'0 0.0
2018-Jun-13 18:30N 29°57' W 093°52'0 0.0
2018-Jun-13 18:00N 29°57' W 093°52'0 0.0
2018-Jun-13 17:30N 29°57' W 093°52'0 0.0
2018-Jun-13 16:57N 29°57' W 093°52'0 0.0
2018-Jun-13 16:30N 29°57' W 093°52'0 0.0
2018-Jun-13 16:01N 29°57' W 093°52'0 0.0
2018-Jun-13 15:30N 29°57' W 093°52'1 1.7
2018-Jun-13 15:00N 29°57' W 093°52'4 7.4
2018-Jun-13 14:30N 29°59' W 093°55'1 2.2
2018-Jun-13 14:00N 29°60' W 093°56'0 0.0
2018-Jun-13 13:30N 29°60' W 093°56'0 0.0
2018-Jun-13 13:00N 29°60' W 093°56'1 2.5
2018-Jun-13 12:30N 30°00' W 093°57'2 3.3
2018-Jun-13 12:00N 30°01' W 093°59'0 0.0
2018-Jun-13 11:30N 30°01' W 093°59'2 4.6
2018-Jun-13 11:00N 29°60' W 093°57'1 1.3
2018-Jun-13 10:30N 29°59' W 093°56'0 0.0
2018-Jun-13 10:00N 29°59' W 093°56'0 0.0
2018-Jun-13 09:30N 29°59' W 093°56'0 0.0
2018-Jun-13 09:01N 29°59' W 093°56'0 0.0
2018-Jun-13 08:30N 29°59' W 093°56'0 0.0
2018-Jun-13 08:00N 29°59' W 093°56'0 0.0
2018-Jun-13 07:30N 29°59' W 093°56'0 0.4
2018-Jun-13 07:00N 29°59' W 093°56'4 8.4
2018-Jun-13 06:30N 29°58' W 093°51'4 8.2
2018-Jun-13 06:00N 29°54' W 093°54'4 7.5
2018-Jun-13 05:30N 29°51' W 093°56'4 7.2
2018-Jun-13 05:00N 29°48' W 093°57'4 7.8
2018-Jun-13 04:30N 29°45' W 093°54'3 5.0
2018-Jun-13 04:00N 29°43' W 093°52'1 1.3
2018-Jun-13 03:31N 29°44' W 093°52'0 0.2
2018-Jun-13 03:00N 29°44' W 093°52'0 0.1
2018-Jun-13 02:30N 29°44' W 093°52'2 4.0
2018-Jun-13 02:00N 29°45' W 093°54'4 8.6
2018-Jun-13 01:30N 29°48' W 093°57'4 7.5
2018-Jun-13 01:00N 29°52' W 093°56'4 8.7
2018-Jun-13 00:31N 29°55' W 093°53'4 7.0
2018-Jun-13 00:00N 29°59' W 093°52'4 8.2
2018-Jun-12 23:30N 29°60' W 093°57'2 3.1
2018-Jun-12 23:00N 30°01' W 093°58'0 0.0
2018-Jun-12 22:30N 30°01' W 093°58'1 1.4
2018-Jun-12 22:00N 30°01' W 093°59'1 2.2
2018-Jun-12 21:30N 30°01' W 093°58'2 4.6
2018-Jun-12 21:00N 29°59' W 093°56'4 7.8
2018-Jun-12 20:30N 29°58' W 093°51'2 3.3
2018-Jun-12 20:00N 29°57' W 093°52'0 0.0
2018-Jun-12 19:31N 29°57' W 093°52'0 0.0
2018-Jun-12 19:00N 29°57' W 093°52'0 0.0
2018-Jun-12 18:30N 29°57' W 093°52'0 0.0
2018-Jun-12 18:00N 29°57' W 093°52'0 0.0
2018-Jun-12 17:30N 29°57' W 093°52'0 0.0
2018-Jun-12 17:00N 29°57' W 093°52'0 0.0
2018-Jun-12 16:31N 29°57' W 093°52'0 0.0
2018-Jun-12 16:00N 29°57' W 093°52'0 0.0
2018-Jun-12 15:30N 29°57' W 093°52'0 0.0
2018-Jun-12 15:00N 29°57' W 093°52'0 0.0
2018-Jun-12 14:31N 29°57' W 093°52'0 0.0
2018-Jun-12 14:01N 29°57' W 093°52'0 0.0
2018-Jun-12 13:31N 29°57' W 093°52'1 1.9
2018-Jun-12 13:00N 29°57' W 093°51'4 7.4
2018-Jun-12 12:30N 29°59' W 093°55'4 8.2
2018-Jun-12 12:01N 30°01' W 093°60'0 0.3
2018-Jun-12 11:30N 30°01' W 093°60'0 0.1
2018-Jun-12 10:59N 30°01' W 093°60'1 3.0
2018-Jun-12 10:30N 30°01' W 093°58'0 0.0
2018-Jun-12 10:00N 30°01' W 093°58'0 0.0
2018-Jun-12 09:31N 30°01' W 093°58'0 0.0
2018-Jun-12 09:00N 30°01' W 093°58'0 0.0
2018-Jun-12 08:30N 30°01' W 093°58'0 0.0
2018-Jun-12 08:00N 30°01' W 093°58'0 0.0
2018-Jun-12 07:30N 30°01' W 093°58'0 0.0
2018-Jun-12 07:00N 30°01' W 093°58'0 0.0
2018-Jun-12 06:30N 30°01' W 093°58'0 0.0
2018-Jun-12 06:00N 30°01' W 093°58'1 2.1
2018-Jun-12 05:30N 30°01' W 093°59'3 5.6
2018-Jun-12 05:00N 30°02' W 094°02'0 0.2
2018-Jun-12 04:30N 30°02' W 094°02'1 2.5
2018-Jun-12 04:00N 30°04' W 094°02'3 5.6
2018-Jun-12 03:30N 30°05' W 094°05'0 0.0
2018-Jun-12 03:00N 30°05' W 094°05'0 0.0
2018-Jun-12 02:30N 30°05' W 094°05'0 0.0
2018-Jun-12 02:01N 30°05' W 094°05'0 0.0
2018-Jun-12 01:30N 30°05' W 094°05'0 0.2
2018-Jun-12 01:00N 30°05' W 094°05'1 2.4
2018-Jun-12 00:30N 30°05' W 094°04'0 0.9
2018-Jun-12 00:00N 30°05' W 094°04'1 1.0
2018-Jun-11 23:30N 30°05' W 094°05'0 0.0
2018-Jun-11 23:00N 30°05' W 094°05'0 0.0
2018-Jun-11 22:30N 30°05' W 094°05'0 0.0
2018-Jun-11 22:00N 30°05' W 094°05'3 5.7
2018-Jun-11 21:30N 30°03' W 094°02'1 2.7
2018-Jun-11 21:00N 30°02' W 094°02'0 0.0
2018-Jun-11 20:30N 30°02' W 094°02'0 0.2
2018-Jun-11 20:00N 30°02' W 094°02'  
Track history (hours):
 
Tides and Currents Weather Stations Pressure Air Temp Water Temp Dewpoint Dewpoint Depression Visibility Wind Speed Wind Dir Waves Ship Positions

Titan

Owner: Seabulk Towing Service,Inc, Groves, TX. More information available from US FCC via Universal Licensing System and Coast Guard Vessel Documentation Center.

Last reported at 2018-Jun-21 19:30 UTC. Time now 2018-Jun-21 19:52 UTC.
Position N 29°57' W 093°52'.

Length 32 m.

Type: Tug. MMSI: 366268050.

Date/timePositionNaut miles runAvg speedWind from/ knotsBaromVisibWave heightAir tempDewpointWater temp
2018-Jun-21 19:30N 29°57' W 093°52'1 1.1
2018-Jun-21 19:00N 29°57' W 093°52'1 2.8
2018-Jun-21 18:30N 29°56' W 093°53'1 2.4
2018-Jun-21 18:00N 29°57' W 093°52'0 0.0
2018-Jun-21 17:30N 29°57' W 093°52'0 0.9
2018-Jun-21 17:00N 29°57' W 093°52'3 6.6
2018-Jun-21 16:30N 29°59' W 093°55'4 8.1
2018-Jun-21 16:00N 30°01' W 093°59'1 1.3
2018-Jun-21 15:30N 30°01' W 093°60'0 0.0
2018-Jun-21 14:59N 30°01' W 093°60'0 0.1
2018-Jun-21 14:30N 30°01' W 093°60'1 1.4
2018-Jun-21 13:59N 30°01' W 093°59'2 3.1
2018-Jun-21 13:30N 30°00' W 093°57'4 8.7
2018-Jun-21 13:00N 29°59' W 093°52'2 4.8
2018-Jun-21 12:30N 29°57' W 093°52'0 0.0
2018-Jun-21 12:00N 29°57' W 093°52'0 0.0
2018-Jun-21 11:30N 29°57' W 093°52'0 0.0
2018-Jun-21 11:00N 29°57' W 093°52'0 0.0
2018-Jun-21 10:30N 29°57' W 093°52'0 0.0
2018-Jun-21 10:00N 29°57' W 093°52'0 0.0
2018-Jun-21 09:30N 29°57' W 093°52'0 0.0
2018-Jun-21 09:00N 29°57' W 093°52'0 0.0
2018-Jun-21 08:30N 29°57' W 093°52'0 0.7
2018-Jun-21 08:00N 29°57' W 093°52'0 0.3
2018-Jun-21 07:30N 29°57' W 093°52'0 0.2
2018-Jun-21 07:00N 29°57' W 093°52'1 2.3
2018-Jun-21 06:30N 29°56' W 093°52'1 1.5
2018-Jun-21 06:00N 29°57' W 093°52'0 0.0
2018-Jun-21 05:30N 29°57' W 093°52'0 0.0
2018-Jun-21 05:00N 29°57' W 093°52'0 0.0
2018-Jun-21 04:30N 29°57' W 093°52'0 0.0
2018-Jun-21 04:00N 29°57' W 093°52'0 0.0
2018-Jun-21 03:30N 29°57' W 093°52'0 0.0
2018-Jun-21 03:00N 29°57' W 093°52'3 5.3
2018-Jun-21 02:30N 29°59' W 093°53'5 9.0
2018-Jun-21 02:00N 30°01' W 093°58'4 7.5
2018-Jun-21 01:30N 30°03' W 094°02'3 5.4
2018-Jun-21 01:00N 30°05' W 094°04'0 0.0
2018-Jun-21 00:30N 30°05' W 094°04'1 2.0
2018-Jun-21 00:01N 30°05' W 094°05'1 1.3
2018-Jun-20 23:30N 30°05' W 094°04'1 1.3
2018-Jun-20 23:00N 30°05' W 094°05'0 0.0
2018-Jun-20 22:30N 30°05' W 094°05'0 0.0
2018-Jun-20 22:00N 30°05' W 094°05'0 0.0
2018-Jun-20 21:30N 30°05' W 094°05'0 0.0
2018-Jun-20 21:00N 30°05' W 094°05'0 0.0
2018-Jun-20 20:30N 30°05' W 094°05'0 0.0
2018-Jun-20 20:00N 30°05' W 094°05'0 0.0
2018-Jun-20 19:30N 30°05' W 094°05'0 0.0
2018-Jun-20 19:00N 30°05' W 094°05'0 0.0
2018-Jun-20 18:30N 30°05' W 094°05'0 0.0
2018-Jun-20 18:00N 30°05' W 094°05'0 0.0
2018-Jun-20 17:30N 30°05' W 094°05'0 0.0
2018-Jun-20 17:00N 30°05' W 094°05'0 0.0
2018-Jun-20 16:30N 30°05' W 094°05'3 6.7
2018-Jun-20 16:00N 30°03' W 094°02'3 5.5
2018-Jun-20 15:30N 30°01' W 093°60'0 0.0
2018-Jun-20 15:00N 30°01' W 093°60'1 2.6
2018-Jun-20 14:30N 30°01' W 093°58'0 0.2
2018-Jun-20 14:00N 30°01' W 093°58'0 0.0
2018-Jun-20 13:30N 30°01' W 093°58'1 2.2
2018-Jun-20 13:01N 30°01' W 093°59'0 0.1
2018-Jun-20 12:30N 30°01' W 093°59'2 4.8
2018-Jun-20 12:00N 30°02' W 094°02'1 1.1
2018-Jun-20 11:30N 30°02' W 094°02'0 0.0
2018-Jun-20 11:00N 30°02' W 094°02'0 0.5
2018-Jun-20 10:30N 30°02' W 094°02'0 0.0
2018-Jun-20 10:00N 30°02' W 094°02'0 0.0
2018-Jun-20 09:30N 30°02' W 094°02'0 0.0
2018-Jun-20 09:00N 30°02' W 094°02'0 0.0
2018-Jun-20 08:30N 30°02' W 094°02'0 0.0
2018-Jun-20 08:00N 30°02' W 094°02'0 0.0
2018-Jun-20 07:30N 30°02' W 094°02'0 0.0
2018-Jun-20 07:00N 30°02' W 094°02'0 0.0
2018-Jun-20 06:30N 30°02' W 094°02'0 0.7
2018-Jun-20 06:00N 30°02' W 094°02'0 0.0
2018-Jun-20 05:30N 30°02' W 094°02'0 0.2
2018-Jun-20 05:01N 30°02' W 094°02'3 6.3
2018-Jun-20 04:30N 30°05' W 094°04'0 0.9
2018-Jun-20 04:00N 30°05' W 094°05'0 0.0
2018-Jun-20 03:30N 30°05' W 094°05'0 0.0
2018-Jun-20 03:00N 30°05' W 094°05'0 0.0
2018-Jun-20 02:30N 30°05' W 094°05'0 0.0
2018-Jun-20 02:00N 30°05' W 094°05'0 0.2
2018-Jun-20 01:30N 30°05' W 094°05'2 4.8
2018-Jun-20 01:00N 30°04' W 094°02'0 0.2
2018-Jun-20 00:30N 30°04' W 094°02'4 7.1
2018-Jun-20 00:00N 30°01' W 093°60'2 4.9
2018-Jun-19 23:30N 29°60' W 093°57'1 1.8
2018-Jun-19 23:00N 29°60' W 093°56'0 0.0
2018-Jun-19 22:30N 29°60' W 093°56'2 5.0
2018-Jun-19 22:01N 30°01' W 093°59'4 7.7
2018-Jun-19 21:30N 30°03' W 094°02'3 6.2
2018-Jun-19 21:00N 30°05' W 094°05'0 0.0
2018-Jun-19 20:28N 30°05' W 094°05'0 0.0
2018-Jun-19 19:59N 30°05' W 094°05'0 0.0
2018-Jun-19 19:29N 30°05' W 094°05'0 0.0
2018-Jun-19 19:00N 30°05' W 094°05'0 0.0
2018-Jun-19 18:29N 30°05' W 094°05'0 0.0
2018-Jun-19 18:00N 30°05' W 094°05'0 0.0
2018-Jun-19 17:30N 30°05' W 094°05'0 0.0
2018-Jun-19 16:57N 30°05' W 094°05'0 0.0
2018-Jun-19 16:27N 30°05' W 094°05'0 0.0
2018-Jun-19 16:00N 30°05' W 094°05'0 0.0
2018-Jun-19 15:30N 30°05' W 094°05'0 0.0
2018-Jun-19 14:59N 30°05' W 094°05'0 0.0
2018-Jun-19 14:30N 30°05' W 094°05'0 0.0
2018-Jun-19 14:00N 30°05' W 094°05'0 0.0
2018-Jun-19 13:28N 30°05' W 094°05'0 0.0
2018-Jun-19 12:59N 30°05' W 094°05'0 0.0
2018-Jun-19 12:30N 30°05' W 094°05'0 0.0
2018-Jun-19 12:00N 30°05' W 094°05'0 0.0
2018-Jun-19 11:30N 30°05' W 094°05'0 0.0
2018-Jun-19 11:00N 30°05' W 094°05'0 0.0
2018-Jun-19 10:30N 30°05' W 094°05'0 0.0
2018-Jun-19 10:00N 30°05' W 094°05'0 0.0
2018-Jun-19 09:30N 30°05' W 094°05'0 0.0
2018-Jun-19 09:00N 30°05' W 094°05'0 0.0
2018-Jun-19 08:28N 30°05' W 094°05'0 0.0
2018-Jun-19 08:00N 30°05' W 094°05'0 0.0
2018-Jun-19 07:30N 30°05' W 094°05'0 0.0
2018-Jun-19 07:00N 30°05' W 094°05'0 0.0
2018-Jun-19 06:30N 30°05' W 094°05'0 0.0
2018-Jun-19 06:00N 30°05' W 094°05'0 0.0
2018-Jun-19 05:30N 30°05' W 094°05'0 0.0
2018-Jun-19 05:00N 30°05' W 094°05'0 0.0
2018-Jun-19 04:30N 30°05' W 094°05'0 0.0
2018-Jun-19 04:00N 30°05' W 094°05'0 0.0
2018-Jun-19 03:30N 30°05' W 094°05'0 0.0
2018-Jun-19 03:00N 30°05' W 094°05'0 0.0
2018-Jun-19 02:30N 30°05' W 094°05'0 0.0
2018-Jun-19 02:00N 30°05' W 094°05'0 0.0
2018-Jun-19 01:29N 30°05' W 094°05'0 0.0
2018-Jun-19 00:59N 30°05' W 094°05'0 0.0
2018-Jun-19 00:30N 30°05' W 094°05'0 0.0
2018-Jun-18 23:58N 30°05' W 094°05'0 0.0
2018-Jun-18 23:29N 30°05' W 094°05'0 0.0
2018-Jun-18 23:00N 30°05' W 094°05'0 0.0
2018-Jun-18 22:26N 30°05' W 094°05'0 0.0
2018-Jun-18 22:00N 30°05' W 094°05'0 0.0
2018-Jun-18 21:30N 30°05' W 094°05'0 0.0
2018-Jun-18 21:00N 30°05' W 094°05'0 0.0
2018-Jun-18 20:30N 30°05' W 094°05'0 0.0
2018-Jun-18 20:00N 30°05' W 094°05'0 0.0
2018-Jun-18 19:30N 30°05' W 094°05'0 0.0
2018-Jun-18 19:00N 30°05' W 094°05'2 3.4
2018-Jun-18 18:30N 30°04' W 094°03'4 7.4
2018-Jun-18 18:01N 30°01' W 094°01'1 2.5
2018-Jun-18 17:31N 30°01' W 093°60'0 0.2
2018-Jun-18 17:00N 30°01' W 093°60'0 0.0
2018-Jun-18 16:27N 30°01' W 093°60'3 6.1
2018-Jun-18 16:00N 30°03' W 094°02'3 6.7
2018-Jun-18 15:30N 30°05' W 094°05'0 0.0
2018-Jun-18 15:00N 30°05' W 094°05'0 0.0
2018-Jun-18 14:30N 30°05' W 094°05'0 0.0
2018-Jun-18 14:00N 30°05' W 094°05'0 0.0
2018-Jun-18 13:30N 30°05' W 094°05'0 0.0
2018-Jun-18 13:00N 30°05' W 094°05'0 0.0
2018-Jun-18 12:30N 30°05' W 094°05'0 0.0
2018-Jun-18 12:00N 30°05' W 094°05'0 0.0
2018-Jun-18 11:30N 30°05' W 094°05'0 0.0
2018-Jun-18 11:00N 30°05' W 094°05'0 0.0
2018-Jun-18 10:30N 30°05' W 094°05'0 0.0
2018-Jun-18 10:00N 30°05' W 094°05'0 0.0
2018-Jun-18 09:30N 30°05' W 094°05'0 0.0
2018-Jun-18 09:00N 30°05' W 094°05'0 0.0
2018-Jun-18 08:30N 30°05' W 094°05'0 0.0
2018-Jun-18 08:00N 30°05' W 094°05'0 0.0
2018-Jun-18 07:30N 30°05' W 094°05'0 0.0
2018-Jun-18 07:00N 30°05' W 094°05'0 0.0
2018-Jun-18 06:30N 30°05' W 094°05'0 0.0
2018-Jun-18 06:00N 30°05' W 094°05'0 0.0
2018-Jun-18 05:30N 30°05' W 094°05'0 0.0
2018-Jun-18 05:00N 30°05' W 094°05'0 0.0
2018-Jun-18 04:30N 30°05' W 094°05'0 0.0
2018-Jun-18 04:00N 30°05' W 094°05'0 0.0
2018-Jun-18 03:30N 30°05' W 094°05'0 0.0
2018-Jun-18 03:00N 30°05' W 094°05'0 0.0
2018-Jun-18 02:30N 30°05' W 094°05'0 0.0
2018-Jun-18 02:00N 30°05' W 094°05'0 0.0
2018-Jun-18 01:30N 30°05' W 094°05'0 0.0
2018-Jun-18 01:00N 30°05' W 094°05'0 0.0
2018-Jun-18 00:30N 30°05' W 094°05'0 0.0
2018-Jun-18 00:00N 30°05' W 094°05'0 0.0
2018-Jun-17 23:30N 30°05' W 094°05'0 0.0
2018-Jun-17 23:00N 30°05' W 094°05'0 0.0
2018-Jun-17 22:30N 30°05' W 094°05'0 0.0
2018-Jun-17 22:00N 30°05' W 094°05'0 0.9
2018-Jun-17 21:30N 30°05' W 094°05'1 2.0
2018-Jun-17 20:59N 30°04' W 094°03'0 0.1
2018-Jun-17 20:31N 30°04' W 094°03'1 2.5
2018-Jun-17 20:00N 30°05' W 094°05'1 2.4
2018-Jun-17 19:30N 30°04' W 094°03'1 2.2
2018-Jun-17 19:00N 30°04' W 094°02'0 0.0
2018-Jun-17 18:30N 30°04' W 094°02'0 0.0
2018-Jun-17 18:00N 30°04' W 094°02'1 1.1
2018-Jun-17 17:30N 30°04' W 094°02'1 2.7
2018-Jun-17 17:00N 30°02' W 094°02'0 0.3
2018-Jun-17 16:30N 30°02' W 094°02'1 2.6
2018-Jun-17 16:00N 30°01' W 094°01'0 0.0
2018-Jun-17 15:30N 30°01' W 094°01'3 6.6
2018-Jun-17 15:00N 30°04' W 094°03'2 3.7
2018-Jun-17 14:30N 30°05' W 094°05'0 0.0
2018-Jun-17 14:01N 30°05' W 094°05'0 0.0
2018-Jun-17 13:30N 30°05' W 094°05'0 0.0
2018-Jun-17 13:00N 30°05' W 094°05'0 0.0
2018-Jun-17 12:30N 30°05' W 094°05'0 0.0
2018-Jun-17 12:00N 30°05' W 094°05'0 0.0
2018-Jun-17 11:30N 30°05' W 094°05'0 0.0
2018-Jun-17 11:00N 30°05' W 094°05'0 0.0
2018-Jun-17 10:30N 30°05' W 094°05'0 0.0
2018-Jun-17 10:00N 30°05' W 094°05'0 0.0
2018-Jun-17 09:30N 30°05' W 094°05'0 0.0
2018-Jun-17 09:00N 30°05' W 094°05'0 0.0
2018-Jun-17 08:30N 30°05' W 094°05'0 0.0
2018-Jun-17 08:00N 30°05' W 094°05'0 0.0
2018-Jun-17 07:31N 30°05' W 094°05'0 0.0
2018-Jun-17 07:00N 30°05' W 094°05'0 0.0
2018-Jun-17 06:30N 30°05' W 094°05'0 0.0
2018-Jun-17 06:01N 30°05' W 094°05'0 0.0
2018-Jun-17 05:30N 30°05' W 094°05'0 0.0
2018-Jun-17 05:00N 30°05' W 094°05'0 0.0
2018-Jun-17 04:26N 30°05' W 094°05'0 0.0
2018-Jun-17 03:58N 30°05' W 094°05'0 0.0
2018-Jun-17 03:28N 30°05' W 094°05'0 0.0
2018-Jun-17 03:00N 30°05' W 094°05'0 0.0
2018-Jun-17 02:30N 30°05' W 094°05'2 4.1
2018-Jun-17 02:01N 30°04' W 094°03'2 3.4
2018-Jun-17 01:30N 30°02' W 094°02'0 0.6
2018-Jun-17 01:00N 30°02' W 094°02'3 7.0
2018-Jun-17 00:30N 30°01' W 093°58'2 4.2
2018-Jun-17 00:00N 29°60' W 093°56'0 0.0
2018-Jun-16 23:30N 29°60' W 093°56'1 2.6
2018-Jun-16 23:00N 29°59' W 093°55'1 2.2
2018-Jun-16 22:28N 29°59' W 093°56'0 0.0
2018-Jun-16 21:59N 29°59' W 093°56'0 0.0
2018-Jun-16 21:29N 29°59' W 093°56'0 0.0
2018-Jun-16 21:00N 29°59' W 093°56'0 0.0
2018-Jun-16 20:27N 29°59' W 093°56'0 0.0
2018-Jun-16 19:58N 29°59' W 093°56'0 0.0
2018-Jun-16 19:30N 29°59' W 093°56'0 0.0
2018-Jun-16 19:00N 29°59' W 093°56'0 0.0
2018-Jun-16 18:28N 29°59' W 093°56'0 0.0
2018-Jun-16 18:00N 29°59' W 093°56'0 0.0
2018-Jun-16 17:30N 29°59' W 093°56'0 0.0
2018-Jun-16 16:59N 29°59' W 093°56'0 0.0
2018-Jun-16 16:27N 29°59' W 093°56'0 0.0
2018-Jun-16 15:57N 29°59' W 093°56'0 0.0
2018-Jun-16 15:30N 29°59' W 093°56'0 0.0
2018-Jun-16 14:59N 29°59' W 093°56'0 0.0
2018-Jun-16 14:28N 29°59' W 093°56'0 0.0
2018-Jun-16 13:58N 29°59' W 093°56'0 0.0
2018-Jun-16 13:30N 29°59' W 093°56'0 0.0
2018-Jun-16 13:00N 29°59' W 093°56'2 4.4
2018-Jun-16 12:30N 30°01' W 093°58'0 0.1
2018-Jun-16 12:00N 30°01' W 093°58'1 2.6
2018-Jun-16 11:30N 30°01' W 093°60'0 0.0
2018-Jun-16 11:00N 30°01' W 093°60'3 5.4
2018-Jun-16 10:30N 29°60' W 093°57'1 1.2
2018-Jun-16 10:00N 29°59' W 093°56'0 0.0
2018-Jun-16 09:30N 29°59' W 093°56'0 0.0
2018-Jun-16 08:31N 29°59' W 093°56'0 0.0
2018-Jun-16 08:24N 29°59' W 093°56'0 0.0
2018-Jun-16 07:44N 29°59' W 093°56'0 0.0
2018-Jun-16 07:29N 29°59' W 093°56'0 0.0
2018-Jun-16 07:00N 29°59' W 093°56'0 0.0
2018-Jun-16 06:29N 29°59' W 093°56'0 0.0
2018-Jun-16 05:58N 29°59' W 093°56'0 0.0
2018-Jun-16 05:30N 29°59' W 093°56'0 0.0
2018-Jun-16 05:00N 29°59' W 093°56'0 0.0
2018-Jun-16 04:28N 29°59' W 093°56'0 0.0
2018-Jun-16 04:00N 29°59' W 093°56'0 0.0
2018-Jun-16 03:29N 29°59' W 093°56'0 0.0
2018-Jun-16 03:00N 29°59' W 093°56'0 0.0
2018-Jun-16 02:27N 29°59' W 093°56'0 0.0
2018-Jun-16 01:47N 29°59' W 093°56'0 0.0
2018-Jun-16 01:21N 29°59' W 093°56'0 0.0
2018-Jun-16 00:56N 29°59' W 093°56'0 0.0
2018-Jun-16 00:30N 29°59' W 093°56'0 0.0
2018-Jun-16 00:00N 29°59' W 093°56'0 0.0
2018-Jun-15 23:30N 29°59' W 093°56'0 0.6
2018-Jun-15 23:00N 29°60' W 093°56'0 0.0
2018-Jun-15 22:30N 29°60' W 093°56'0 0.9
2018-Jun-15 22:00N 29°59' W 093°56'1 2.4
2018-Jun-15 21:31N 29°59' W 093°55'1 2.5
2018-Jun-15 20:59N 29°59' W 093°56'0 0.0
2018-Jun-15 20:16N 29°59' W 093°56'0 0.0
2018-Jun-15 19:57N 29°59' W 093°56'0 0.0
2018-Jun-15 19:24N 29°59' W 093°56'0 0.0
2018-Jun-15 19:00N 29°59' W 093°56'1 1.4
2018-Jun-15 18:30N 29°59' W 093°55'4 7.6
2018-Jun-15 18:01N 29°58' W 093°51'3 5.4
2018-Jun-15 17:30N 29°55' W 093°53'2 3.3
2018-Jun-15 17:00N 29°57' W 093°52'2 3.9
2018-Jun-15 16:29N 29°55' W 093°53'0 0.0
2018-Jun-15 16:00N 29°55' W 093°53'0 0.0
2018-Jun-15 15:30N 29°55' W 093°53'0 0.0
2018-Jun-15 15:00N 29°55' W 093°53'0 0.1
2018-Jun-15 14:30N 29°55' W 093°53'2 3.4
2018-Jun-15 14:01N 29°57' W 093°52'0 0.0
2018-Jun-15 13:30N 29°57' W 093°52'0 0.0
2018-Jun-15 13:00N 29°57' W 093°52'0 0.0
2018-Jun-15 12:30N 29°57' W 093°52'0 0.0
2018-Jun-15 12:00N 29°57' W 093°52'0 0.0
2018-Jun-15 11:31N 29°57' W 093°52'0 0.0
2018-Jun-15 11:00N 29°57' W 093°52'0 0.0
2018-Jun-15 10:30N 29°57' W 093°52'0 0.0
2018-Jun-15 10:00N 29°57' W 093°52'0 0.0
2018-Jun-15 09:30N 29°57' W 093°52'0 0.0
2018-Jun-15 09:00N 29°57' W 093°52'0 0.0
2018-Jun-15 08:30N 29°57' W 093°52'0 0.0
2018-Jun-15 08:00N 29°57' W 093°52'0 0.0
2018-Jun-15 07:30N 29°57' W 093°52'0 0.0
2018-Jun-15 07:00N 29°57' W 093°52'0 0.0
2018-Jun-15 06:30N 29°57' W 093°52'0 0.0
2018-Jun-15 06:00N 29°57' W 093°52'0 0.1
2018-Jun-15 05:30N 29°57' W 093°52'4 7.0
2018-Jun-15 05:00N 29°54' W 093°54'3 5.0
2018-Jun-15 04:30N 29°52' W 093°56'0 0.0
2018-Jun-15 04:00N 29°52' W 093°56'0 0.0
2018-Jun-15 03:30N 29°52' W 093°56'1 1.4
2018-Jun-15 03:00N 29°52' W 093°56'1 2.0
2018-Jun-15 02:30N 29°52' W 093°56'0 0.2
2018-Jun-15 02:00N 29°52' W 093°56'0 0.0
2018-Jun-15 01:30N 29°52' W 093°56'0 0.0
2018-Jun-15 01:00N 29°52' W 093°56'0 0.0
2018-Jun-15 00:30N 29°52' W 093°56'0 0.0
2018-Jun-14 23:59N 29°52' W 093°56'0 0.0
2018-Jun-14 23:30N 29°52' W 093°56'0 0.0
2018-Jun-14 23:00N 29°52' W 093°56'0 0.0
2018-Jun-14 22:30N 29°52' W 093°56'0 0.0
2018-Jun-14 22:00N 29°52' W 093°56'1 1.8
2018-Jun-14 21:30N 29°52' W 093°56'4 8.6
2018-Jun-14 21:00N 29°56' W 093°53'3 6.3
2018-Jun-14 20:30N 29°59' W 093°53'3 6.3
2018-Jun-14 20:00N 29°59' W 093°56'0 0.0
2018-Jun-14 19:31N 29°59' W 093°56'0 0.0
2018-Jun-14 19:00N 29°60' W 093°56'0 0.0
2018-Jun-14 18:30N 29°59' W 093°56'0 0.0
2018-Jun-14 18:00N 29°60' W 093°56'0 0.0
2018-Jun-14 17:30N 29°59' W 093°56'0 0.0
2018-Jun-14 17:00N 29°59' W 093°56'0 0.2
2018-Jun-14 16:28N 29°59' W 093°56'0 0.0
2018-Jun-14 15:56N 29°59' W 093°56'0 0.0
2018-Jun-14 15:30N 29°59' W 093°56'0 0.0
2018-Jun-14 14:55N 29°59' W 093°56'0 0.0
2018-Jun-14 14:30N 29°59' W 093°56'0 0.0
2018-Jun-14 13:58N 29°59' W 093°56'0 0.5
2018-Jun-14 13:30N 29°60' W 093°56'4 7.7
2018-Jun-14 13:00N 30°01' W 094°00'2 3.2
2018-Jun-14 12:31N 30°02' W 094°02'1 1.2
2018-Jun-14 12:01N 30°02' W 094°02'3 6.9
2018-Jun-14 11:31N 30°05' W 094°05'0 0.0
2018-Jun-14 11:00N 30°05' W 094°05'0 0.0
2018-Jun-14 10:30N 30°05' W 094°05'0 0.0
2018-Jun-14 10:00N 30°05' W 094°05'0 0.0
2018-Jun-14 09:30N 30°05' W 094°05'0 0.0
2018-Jun-14 09:00N 30°05' W 094°05'0 0.0
2018-Jun-14 08:30N 30°05' W 094°05'0 0.0
2018-Jun-14 08:00N 30°05' W 094°05'0 0.0
2018-Jun-14 07:30N 30°05' W 094°05'0 0.0
2018-Jun-14 07:00N 30°05' W 094°05'0 0.0
2018-Jun-14 06:31N 30°05' W 094°05'0 0.0
2018-Jun-14 06:00N 30°05' W 094°05'0 0.0
2018-Jun-14 05:30N 30°05' W 094°05'0 0.0
2018-Jun-14 05:00N 30°05' W 094°05'0 0.0
2018-Jun-14 04:31N 30°05' W 094°05'0 0.0
2018-Jun-14 04:00N 30°05' W 094°05'0 0.0
2018-Jun-14 03:30N 30°05' W 094°05'2 4.7
2018-Jun-14 03:00N 30°04' W 094°02'2 3.2
2018-Jun-14 02:30N 30°02' W 094°02'0 0.0
2018-Jun-14 02:01N 30°02' W 094°02'1 1.4
2018-Jun-14 01:30N 30°02' W 094°02'1 1.7
2018-Jun-14 01:00N 30°01' W 094°01'1 1.1
2018-Jun-14 00:30N 30°01' W 094°00'1 1.3
2018-Jun-14 00:00N 30°01' W 093°60'0 0.0
2018-Jun-13 23:30N 30°01' W 093°60'0 0.8
2018-Jun-13 23:00N 30°01' W 093°59'2 3.3
2018-Jun-13 22:31N 30°01' W 093°57'4 8.4
2018-Jun-13 22:00N 29°59' W 093°53'2 4.8
2018-Jun-13 21:30N 29°57' W 093°52'0 0.0
2018-Jun-13 21:00N 29°57' W 093°52'0 0.0
2018-Jun-13 20:30N 29°57' W 093°52'0 0.0
2018-Jun-13 20:01N 29°57' W 093°52'0 0.0
2018-Jun-13 19:30N 29°57' W 093°52'0 0.0
2018-Jun-13 19:00N 29°57' W 093°52'0 0.0
2018-Jun-13 18:30N 29°57' W 093°52'0 0.0
2018-Jun-13 18:00N 29°57' W 093°52'0 0.0
2018-Jun-13 17:30N 29°57' W 093°52'0 0.0
2018-Jun-13 16:57N 29°57' W 093°52'0 0.0
2018-Jun-13 16:30N 29°57' W 093°52'0 0.0
2018-Jun-13 16:01N 29°57' W 093°52'0 0.0
2018-Jun-13 15:30N 29°57' W 093°52'1 1.7
2018-Jun-13 15:00N 29°57' W 093°52'4 7.4
2018-Jun-13 14:30N 29°59' W 093°55'1 2.2
2018-Jun-13 14:00N 29°60' W 093°56'0 0.0
2018-Jun-13 13:30N 29°60' W 093°56'0 0.0
2018-Jun-13 13:00N 29°60' W 093°56'1 2.5
2018-Jun-13 12:30N 30°00' W 093°57'2 3.3
2018-Jun-13 12:00N 30°01' W 093°59'0 0.0
2018-Jun-13 11:30N 30°01' W 093°59'2 4.6
2018-Jun-13 11:00N 29°60' W 093°57'1 1.3
2018-Jun-13 10:30N 29°59' W 093°56'0 0.0
2018-Jun-13 10:00N 29°59' W 093°56'0 0.0
2018-Jun-13 09:30N 29°59' W 093°56'0 0.0
2018-Jun-13 09:01N 29°59' W 093°56'0 0.0
2018-Jun-13 08:30N 29°59' W 093°56'0 0.0
2018-Jun-13 08:00N 29°59' W 093°56'0 0.0
2018-Jun-13 07:30N 29°59' W 093°56'0 0.4
2018-Jun-13 07:00N 29°59' W 093°56'4 8.4
2018-Jun-13 06:30N 29°58' W 093°51'4 8.2
2018-Jun-13 06:00N 29°54' W 093°54'4 7.5
2018-Jun-13 05:30N 29°51' W 093°56'4 7.2
2018-Jun-13 05:00N 29°48' W 093°57'4 7.8
2018-Jun-13 04:30N 29°45' W 093°54'3 5.0
2018-Jun-13 04:00N 29°43' W 093°52'1 1.3
2018-Jun-13 03:31N 29°44' W 093°52'0 0.2
2018-Jun-13 03:00N 29°44' W 093°52'0 0.1
2018-Jun-13 02:30N 29°44' W 093°52'2 4.0
2018-Jun-13 02:00N 29°45' W 093°54'4 8.6
2018-Jun-13 01:30N 29°48' W 093°57'4 7.5
2018-Jun-13 01:00N 29°52' W 093°56'4 8.7
2018-Jun-13 00:31N 29°55' W 093°53'4 7.0
2018-Jun-13 00:00N 29°59' W 093°52'4 8.2
2018-Jun-12 23:30N 29°60' W 093°57'2 3.1
2018-Jun-12 23:00N 30°01' W 093°58'0 0.0
2018-Jun-12 22:30N 30°01' W 093°58'1 1.4
2018-Jun-12 22:00N 30°01' W 093°59'1 2.2
2018-Jun-12 21:30N 30°01' W 093°58'2 4.6
2018-Jun-12 21:00N 29°59' W 093°56'4 7.8
2018-Jun-12 20:30N 29°58' W 093°51'2 3.3
2018-Jun-12 20:00N 29°57' W 093°52'0 0.0
2018-Jun-12 19:31N 29°57' W 093°52'0 0.0
2018-Jun-12 19:00N 29°57' W 093°52'0 0.0
2018-Jun-12 18:30N 29°57' W 093°52'0 0.0
2018-Jun-12 18:00N 29°57' W 093°52'0 0.0
2018-Jun-12 17:30N 29°57' W 093°52'0 0.0
2018-Jun-12 17:00N 29°57' W 093°52'0 0.0
2018-Jun-12 16:31N 29°57' W 093°52'0 0.0
2018-Jun-12 16:00N 29°57' W 093°52'0 0.0
2018-Jun-12 15:30N 29°57' W 093°52'0 0.0
2018-Jun-12 15:00N 29°57' W 093°52'0 0.0
2018-Jun-12 14:31N 29°57' W 093°52'0 0.0
2018-Jun-12 14:01N 29°57' W 093°52'0 0.0
2018-Jun-12 13:31N 29°57' W 093°52'1 1.9
2018-Jun-12 13:00N 29°57' W 093°51'4 7.4
2018-Jun-12 12:30N 29°59' W 093°55'4 8.2
2018-Jun-12 12:01N 30°01' W 093°60'0 0.3
2018-Jun-12 11:30N 30°01' W 093°60'0 0.1
2018-Jun-12 10:59N 30°01' W 093°60'1 3.0
2018-Jun-12 10:30N 30°01' W 093°58'0 0.0
2018-Jun-12 10:00N 30°01' W 093°58'0 0.0
2018-Jun-12 09:31N 30°01' W 093°58'0 0.0
2018-Jun-12 09:00N 30°01' W 093°58'0 0.0
2018-Jun-12 08:30N 30°01' W 093°58'0 0.0
2018-Jun-12 08:00N 30°01' W 093°58'0 0.0
2018-Jun-12 07:30N 30°01' W 093°58'0 0.0
2018-Jun-12 07:00N 30°01' W 093°58'0 0.0
2018-Jun-12 06:30N 30°01' W 093°58'0 0.0
2018-Jun-12 06:00N 30°01' W 093°58'1 2.1
2018-Jun-12 05:30N 30°01' W 093°59'3 5.6
2018-Jun-12 05:00N 30°02' W 094°02'0 0.2
2018-Jun-12 04:30N 30°02' W 094°02'1 2.5
2018-Jun-12 04:00N 30°04' W 094°02'3 5.6
2018-Jun-12 03:30N 30°05' W 094°05'0 0.0
2018-Jun-12 03:00N 30°05' W 094°05'0 0.0
2018-Jun-12 02:30N 30°05' W 094°05'0 0.0
2018-Jun-12 02:01N 30°05' W 094°05'0 0.0
2018-Jun-12 01:30N 30°05' W 094°05'0 0.2
2018-Jun-12 01:00N 30°05' W 094°05'1 2.4
2018-Jun-12 00:30N 30°05' W 094°04'0 0.9
2018-Jun-12 00:00N 30°05' W 094°04'1 1.0
2018-Jun-11 23:30N 30°05' W 094°05'0 0.0
2018-Jun-11 23:00N 30°05' W 094°05'0 0.0
2018-Jun-11 22:30N 30°05' W 094°05'0 0.0
2018-Jun-11 22:00N 30°05' W 094°05'3 5.7
2018-Jun-11 21:30N 30°03' W 094°02'1 2.7
2018-Jun-11 21:00N 30°02' W 094°02'0 0.0
2018-Jun-11 20:30N 30°02' W 094°02'0 0.2
2018-Jun-11 20:00N 30°02' W 094°02'  

Dump ship's entire track history